Entz Arts Airport

US-0679 · 奧克拉荷馬州, 美国

罗盘
风向 的 风向 190°
风: 9 kt, 3 beaufort

添加一条跑道以查看侧风和逆风信息。

添置 跑道
0 ft 1.000 2.000 3.000 4.000 5.000
没有云
METAR KOJA 280715Z AUTO 19009KT 10SM CLR 05/M01 A2990 RMK AO2 T00521013

METAR Entz Arts Airport - US-0679

Entz Arts Airport是,美国中的小机场。 该领域的国际民航组织标志是US-0679.

这份报告是针对2023年1月28日 01:15, 当地时间在Thomas P Stafford Airport进行的。

机场观察

风向为190°,速度为9 kt。

可见度为10 mi。

有没有云。 没有观察到天花板。

温度为5 °C,阵风为0 °C。 露点为-1 °C,相对湿度为66%。 海平面上的气压为29,90 inHg (QNH)。

白天

今天,太阳从07:36升起,在17:57降落。 这适用于Entz Arts Airport,世界夏令时可能有所不同。 当地时间与世界标准时间之间的时差为-6 小时。 当前,没有夏令时有效。

公司介绍

我们没有关于这个机场的公司信息。

体会

到Vliegles.nl去找飞行课程,跳伞和其他飞行体验。 浏览页面,了解Entz Arts Airport附近所有可用的活动。 你也可以使用搜索功能来寻找你所在地附近的特定飞行课程、跳伞或其他飞行体验。

乌云

- CLR 没有云

温度 & 天气

温度 5,2 °C
露点 -1,3 °C
相对湿度 66%
风寒 0 °C
Kp-index 1 (0-9)

评论

AO2自动气象站,可确定降水类型
T00521013温度为5,2 °C (41,4 °F),露点为-1,3 °C (29,7 °F)

白天

日出
07:37 (5:57)
中午
12:47
日落
17:58

小工具

你想在你的网站上有一个关于Entz Arts Airport的当前航空天气(METAR)的小部件吗?

显示HTML代码

我们和第三方通过cookies跟踪您在我们网站上的互联网行为。如果你继续,我们认为你同意我们的饼干政策